sensor_id;sensor_type;location;lat;lon;timestamp;temperature;humidity
40808;DHT22;26523;52.504;13.498;2023-01-10T00:00:28;6.60;99.90
40808;DHT22;26523;52.504;13.498;2023-01-10T00:03:03;6.60;99.90
40808;DHT22;26523;52.504;13.498;2023-01-10T00:05:29;6.60;99.90
40808;DHT22;26523;52.504;13.498;2023-01-10T00:07:55;6.50;99.90
40808;DHT22;26523;52.504;13.498;2023-01-10T00:10:21;6.50;99.90
40808;DHT22;26523;52.504;13.498;2023-01-10T00:12:47;6.50;99.90
40808;DHT22;26523;52.504;13.498;2023-01-10T00:15:32;6.50;99.90
40808;DHT22;26523;52.504;13.498;2023-01-10T00:17:58;6.50;99.90
40808;DHT22;26523;52.504;13.498;2023-01-10T00:20:24;6.50;99.90
40808;DHT22;26523;52.504;13.498;2023-01-10T00:22:49;6.50;99.90
40808;DHT22;26523;52.504;13.498;2023-01-10T00:25:16;6.50;99.90
40808;DHT22;26523;52.504;13.498;2023-01-10T00:27:44;6.60;99.90
40808;DHT22;26523;52.504;13.498;2023-01-10T00:30:12;6.50;99.90
40808;DHT22;26523;52.504;13.498;2023-01-10T00:32:42;6.60;99.90
40808;DHT22;26523;52.504;13.498;2023-01-10T00:35:09;6.60;99.90
40808;DHT22;26523;52.504;13.498;2023-01-10T00:37:36;6.60;99.90
40808;DHT22;26523;52.504;13.498;2023-01-10T00:40:03;6.50;99.90
40808;DHT22;26523;52.504;13.498;2023-01-10T00:42:29;6.60;99.90
40808;DHT22;26523;52.504;13.498;2023-01-10T00:45:13;6.60;99.90
40808;DHT22;26523;52.504;13.498;2023-01-10T00:47:40;6.60;99.90
40808;DHT22;26523;52.504;13.498;2023-01-10T00:50:06;6.60;99.90
40808;DHT22;26523;52.504;13.498;2023-01-10T00:52:33;6.70;99.90
40808;DHT22;26523;52.504;13.498;2023-01-10T00:54:59;6.70;99.90
40808;DHT22;26523;52.504;13.498;2023-01-10T00:57:24;6.60;99.90
40808;DHT22;26523;52.504;13.498;2023-01-10T00:59:50;6.60;99.90
40808;DHT22;26523;52.504;13.498;2023-01-10T01:02:16;6.70;99.90
40808;DHT22;26523;52.504;13.498;2023-01-10T01:04:41;6.70;99.90
40808;DHT22;26523;52.504;13.498;2023-01-10T01:07:07;6.70;99.90
40808;DHT22;26523;52.504;13.498;2023-01-10T01:09:32;6.70;99.90
40808;DHT22;26523;52.504;13.498;2023-01-10T01:11:58;6.80;99.90
40808;DHT22;26523;52.504;13.498;2023-01-10T01:14:24;6.80;99.90
40808;DHT22;26523;52.504;13.498;2023-01-10T01:16:50;6.70;99.90
40808;DHT22;26523;52.504;13.498;2023-01-10T01:19:16;6.80;99.90
40808;DHT22;26523;52.504;13.498;2023-01-10T01:21:41;6.80;99.90
40808;DHT22;26523;52.504;13.498;2023-01-10T01:24:09;6.80;99.90
40808;DHT22;26523;52.504;13.498;2023-01-10T01:26:35;6.70;99.90
40808;DHT22;26523;52.504;13.498;2023-01-10T01:29:01;6.80;99.90
40808;DHT22;26523;52.504;13.498;2023-01-10T01:31:26;6.70;99.90
40808;DHT22;26523;52.504;13.498;2023-01-10T01:33:52;6.70;99.90
40808;DHT22;26523;52.504;13.498;2023-01-10T01:36:18;6.70;99.90
40808;DHT22;26523;52.504;13.498;2023-01-10T01:38:44;6.80;99.90
40808;DHT22;26523;52.504;13.498;2023-01-10T01:41:10;6.70;99.90
40808;DHT22;26523;52.504;13.498;2023-01-10T01:46:27;6.70;99.90
40808;DHT22;26523;52.504;13.498;2023-01-10T01:48:53;6.60;99.90
40808;DHT22;26523;52.504;13.498;2023-01-10T01:51:25;6.70;99.90
40808;DHT22;26523;52.504;13.498;2023-01-10T01:54:00;6.70;99.90
40808;DHT22;26523;52.504;13.498;2023-01-10T01:56:41;6.70;99.90
40808;DHT22;26523;52.504;13.498;2023-01-10T01:59:18;6.60;99.90
40808;DHT22;26523;52.504;13.498;2023-01-10T02:01:49;6.60;99.90
40808;DHT22;26523;52.504;13.498;2023-01-10T02:04:27;6.60;99.90
40808;DHT22;26523;52.504;13.498;2023-01-10T02:06:55;6.60;99.90
40808;DHT22;26523;52.504;13.498;2023-01-10T02:09:29;6.50;99.90
40808;DHT22;26523;52.504;13.498;2023-01-10T02:11:56;6.50;99.90
40808;DHT22;26523;52.504;13.498;2023-01-10T02:14:24;6.50;99.90
40808;DHT22;26523;52.504;13.498;2023-01-10T02:16:51;6.60;99.90
40808;DHT22;26523;52.504;13.498;2023-01-10T02:25:26;6.20;99.90
40808;DHT22;26523;52.504;13.498;2023-01-10T02:44:57;6.40;99.90
40808;DHT22;26523;52.504;13.498;2023-01-10T02:47:24;6.30;99.90
40808;DHT22;26523;52.504;13.498;2023-01-10T02:49:51;6.20;99.90
40808;DHT22;26523;52.504;13.498;2023-01-10T02:52:21;6.20;99.90
40808;DHT22;26523;52.504;13.498;2023-01-10T02:54:49;6.30;99.90
40808;DHT22;26523;52.504;13.498;2023-01-10T03:08:25;6.20;99.90
40808;DHT22;26523;52.504;13.498;2023-01-10T03:11:00;6.20;99.90
40808;DHT22;26523;52.504;13.498;2023-01-10T03:15:56;6.30;99.90
40808;DHT22;26523;52.504;13.498;2023-01-10T03:18:30;6.40;99.90
40808;DHT22;26523;52.504;13.498;2023-01-10T03:20:57;6.40;99.90
40808;DHT22;26523;52.504;13.498;2023-01-10T03:23:23;6.40;99.90
40808;DHT22;26523;52.504;13.498;2023-01-10T03:25:51;6.40;99.90
40808;DHT22;26523;52.504;13.498;2023-01-10T03:28:32;6.40;99.90
40808;DHT22;26523;52.504;13.498;2023-01-10T03:31:07;6.40;99.90
40808;DHT22;26523;52.504;13.498;2023-01-10T03:33:35;6.40;99.90
40808;DHT22;26523;52.504;13.498;2023-01-10T03:36:18;6.40;99.90
40808;DHT22;26523;52.504;13.498;2023-01-10T03:38:56;6.40;99.90
40808;DHT22;26523;52.504;13.498;2023-01-10T03:47:17;6.50;99.90
40808;DHT22;26523;52.504;13.498;2023-01-10T03:49:44;6.50;99.90
40808;DHT22;26523;52.504;13.498;2023-01-10T03:52:14;6.50;99.90
40808;DHT22;26523;52.504;13.498;2023-01-10T03:54:45;6.50;99.90
40808;DHT22;26523;52.504;13.498;2023-01-10T03:57:18;6.50;99.90
40808;DHT22;26523;52.504;13.498;2023-01-10T03:59:44;6.60;99.90
40808;DHT22;26523;52.504;13.498;2023-01-10T04:02:10;6.60;99.90
40808;DHT22;26523;52.504;13.498;2023-01-10T04:04:36;6.50;99.90
40808;DHT22;26523;52.504;13.498;2023-01-10T04:07:02;6.60;99.90
40808;DHT22;26523;52.504;13.498;2023-01-10T04:09:28;6.50;99.90
40808;DHT22;26523;52.504;13.498;2023-01-10T04:11:53;6.60;99.90
40808;DHT22;26523;52.504;13.498;2023-01-10T04:14:19;6.60;99.90
40808;DHT22;26523;52.504;13.498;2023-01-10T04:16:44;6.60;99.90
40808;DHT22;26523;52.504;13.498;2023-01-10T04:19:10;6.60;99.90
40808;DHT22;26523;52.504;13.498;2023-01-10T04:21:36;6.60;99.90
40808;DHT22;26523;52.504;13.498;2023-01-10T04:24:01;6.70;99.90
40808;DHT22;26523;52.504;13.498;2023-01-10T04:26:27;6.70;99.90
40808;DHT22;26523;52.504;13.498;2023-01-10T04:28:53;6.70;99.90
40808;DHT22;26523;52.504;13.498;2023-01-10T04:31:19;6.60;99.90
40808;DHT22;26523;52.504;13.498;2023-01-10T04:33:44;6.60;99.90
40808;DHT22;26523;52.504;13.498;2023-01-10T04:36:10;6.70;99.90
40808;DHT22;26523;52.504;13.498;2023-01-10T04:38:36;6.70;99.90
40808;DHT22;26523;52.504;13.498;2023-01-10T04:41:01;6.70;99.90
40808;DHT22;26523;52.504;13.498;2023-01-10T04:43:27;6.70;99.90
40808;DHT22;26523;52.504;13.498;2023-01-10T04:45:53;6.70;99.90
40808;DHT22;26523;52.504;13.498;2023-01-10T04:48:18;6.70;99.90
40808;DHT22;26523;52.504;13.498;2023-01-10T04:50:51;6.70;99.90
40808;DHT22;26523;52.504;13.498;2023-01-10T04:53:17;6.60;99.90
40808;DHT22;26523;52.504;13.498;2023-01-10T04:55:43;6.60;99.90
40808;DHT22;26523;52.504;13.498;2023-01-10T04:58:09;6.50;99.90
40808;DHT22;26523;52.504;13.498;2023-01-10T05:00:35;6.50;99.90
40808;DHT22;26523;52.504;13.498;2023-01-10T05:03:00;6.50;99.90
40808;DHT22;26523;52.504;13.498;2023-01-10T05:05:26;6.40;99.90
40808;DHT22;26523;52.504;13.498;2023-01-10T05:07:53;6.40;99.90
40808;DHT22;26523;52.504;13.498;2023-01-10T05:10:18;6.40;99.90
40808;DHT22;26523;52.504;13.498;2023-01-10T05:12:45;6.50;99.90
40808;DHT22;26523;52.504;13.498;2023-01-10T05:15:11;6.60;99.90
40808;DHT22;26523;52.504;13.498;2023-01-10T05:17:37;6.60;99.90
40808;DHT22;26523;52.504;13.498;2023-01-10T05:20:04;6.60;99.90
40808;DHT22;26523;52.504;13.498;2023-01-10T05:22:30;6.60;99.90
40808;DHT22;26523;52.504;13.498;2023-01-10T05:24:55;6.70;99.90
40808;DHT22;26523;52.504;13.498;2023-01-10T05:27:21;6.60;99.90
40808;DHT22;26523;52.504;13.498;2023-01-10T05:29:46;6.60;99.90
40808;DHT22;26523;52.504;13.498;2023-01-10T05:32:12;6.60;99.90
40808;DHT22;26523;52.504;13.498;2023-01-10T05:34:38;6.50;99.90
40808;DHT22;26523;52.504;13.498;2023-01-10T05:37:04;6.50;99.90
40808;DHT22;26523;52.504;13.498;2023-01-10T05:39:29;6.50;99.90
40808;DHT22;26523;52.504;13.498;2023-01-10T05:41:55;6.50;99.90
40808;DHT22;26523;52.504;13.498;2023-01-10T05:44:21;6.50;99.90
40808;DHT22;26523;52.504;13.498;2023-01-10T05:46:46;6.50;99.90
40808;DHT22;26523;52.504;13.498;2023-01-10T05:49:12;6.50;99.90
40808;DHT22;26523;52.504;13.498;2023-01-10T05:51:38;6.60;99.90
40808;DHT22;26523;52.504;13.498;2023-01-10T05:54:03;6.60;99.90
40808;DHT22;26523;52.504;13.498;2023-01-10T05:56:29;6.50;99.90
40808;DHT22;26523;52.504;13.498;2023-01-10T05:58:55;6.50;99.90
40808;DHT22;26523;52.504;13.498;2023-01-10T06:01:21;6.60;99.90
40808;DHT22;26523;52.504;13.498;2023-01-10T06:03:47;6.60;99.90
40808;DHT22;26523;52.504;13.498;2023-01-10T06:06:13;6.70;99.90
40808;DHT22;26523;52.504;13.498;2023-01-10T06:08:38;6.70;99.90
40808;DHT22;26523;52.504;13.498;2023-01-10T06:11:05;6.70;99.90
40808;DHT22;26523;52.504;13.498;2023-01-10T06:13:32;6.80;99.90
40808;DHT22;26523;52.504;13.498;2023-01-10T06:15:57;6.80;99.90
40808;DHT22;26523;52.504;13.498;2023-01-10T06:18:24;6.80;99.90
40808;DHT22;26523;52.504;13.498;2023-01-10T06:20:49;6.80;99.90
40808;DHT22;26523;52.504;13.498;2023-01-10T06:23:15;6.80;99.90
40808;DHT22;26523;52.504;13.498;2023-01-10T06:25:41;6.80;99.90
40808;DHT22;26523;52.504;13.498;2023-01-10T06:28:08;6.80;99.90
40808;DHT22;26523;52.504;13.498;2023-01-10T06:30:34;6.80;99.90
40808;DHT22;26523;52.504;13.498;2023-01-10T06:33:01;6.80;99.90
40808;DHT22;26523;52.504;13.498;2023-01-10T06:35:27;6.80;99.90
40808;DHT22;26523;52.504;13.498;2023-01-10T06:37:53;6.80;99.90
40808;DHT22;26523;52.504;13.498;2023-01-10T06:40:19;6.80;99.90
40808;DHT22;26523;52.504;13.498;2023-01-10T06:42:44;6.80;99.90
40808;DHT22;26523;52.504;13.498;2023-01-10T06:45:10;6.60;99.90
40808;DHT22;26523;52.504;13.498;2023-01-10T06:47:36;6.70;99.90
40808;DHT22;26523;52.504;13.498;2023-01-10T06:50:03;6.60;99.90
40808;DHT22;26523;52.504;13.498;2023-01-10T06:52:29;6.60;99.90
40808;DHT22;26523;52.504;13.498;2023-01-10T06:54:55;6.60;99.90
40808;DHT22;26523;52.504;13.498;2023-01-10T06:57:21;6.60;99.90
40808;DHT22;26523;52.504;13.498;2023-01-10T06:59:47;6.60;99.90
40808;DHT22;26523;52.504;13.498;2023-01-10T07:02:12;6.60;99.90
40808;DHT22;26523;52.504;13.498;2023-01-10T07:04:38;6.70;99.90
40808;DHT22;26523;52.504;13.498;2023-01-10T07:07:04;6.70;99.90
40808;DHT22;26523;52.504;13.498;2023-01-10T07:09:29;6.70;99.90
40808;DHT22;26523;52.504;13.498;2023-01-10T07:11:55;6.70;99.90
40808;DHT22;26523;52.504;13.498;2023-01-10T07:14:21;6.70;99.90
40808;DHT22;26523;52.504;13.498;2023-01-10T07:16:47;6.70;99.90
40808;DHT22;26523;52.504;13.498;2023-01-10T07:19:12;6.70;99.90
40808;DHT22;26523;52.504;13.498;2023-01-10T07:21:38;6.70;99.90
40808;DHT22;26523;52.504;13.498;2023-01-10T07:24:05;6.70;99.90
40808;DHT22;26523;52.504;13.498;2023-01-10T07:26:30;6.60;99.90
40808;DHT22;26523;52.504;13.498;2023-01-10T07:28:56;6.70;99.90
40808;DHT22;26523;52.504;13.498;2023-01-10T07:31:22;6.70;99.90
40808;DHT22;26523;52.504;13.498;2023-01-10T07:33:49;6.70;99.90
40808;DHT22;26523;52.504;13.498;2023-01-10T07:36:15;6.60;99.90
40808;DHT22;26523;52.504;13.498;2023-01-10T07:38:41;6.60;99.90
40808;DHT22;26523;52.504;13.498;2023-01-10T07:41:06;6.60;99.90
40808;DHT22;26523;52.504;13.498;2023-01-10T07:43:32;6.60;99.90
40808;DHT22;26523;52.504;13.498;2023-01-10T07:45:59;6.60;99.90
40808;DHT22;26523;52.504;13.498;2023-01-10T07:48:25;6.60;99.90
40808;DHT22;26523;52.504;13.498;2023-01-10T07:50:55;6.60;99.90
40808;DHT22;26523;52.504;13.498;2023-01-10T07:53:21;6.60;99.90
40808;DHT22;26523;52.504;13.498;2023-01-10T07:55:47;6.60;99.90
40808;DHT22;26523;52.504;13.498;2023-01-10T07:58:12;6.60;99.90
40808;DHT22;26523;52.504;13.498;2023-01-10T08:00:39;6.60;99.90
40808;DHT22;26523;52.504;13.498;2023-01-10T08:03:04;6.60;99.90
40808;DHT22;26523;52.504;13.498;2023-01-10T08:05:31;6.60;99.90
40808;DHT22;26523;52.504;13.498;2023-01-10T08:07:56;6.70;99.90
40808;DHT22;26523;52.504;13.498;2023-01-10T08:10:27;6.70;99.90
40808;DHT22;26523;52.504;13.498;2023-01-10T08:12:53;6.80;99.90
40808;DHT22;26523;52.504;13.498;2023-01-10T08:15:19;6.80;99.90
40808;DHT22;26523;52.504;13.498;2023-01-10T08:17:45;6.90;99.90
40808;DHT22;26523;52.504;13.498;2023-01-10T08:20:10;6.80;99.90
40808;DHT22;26523;52.504;13.498;2023-01-10T08:22:36;6.90;99.90
40808;DHT22;26523;52.504;13.498;2023-01-10T08:25:02;6.90;99.90
40808;DHT22;26523;52.504;13.498;2023-01-10T08:27:28;6.90;99.90
40808;DHT22;26523;52.504;13.498;2023-01-10T08:29:53;7.00;99.90
40808;DHT22;26523;52.504;13.498;2023-01-10T08:32:19;6.90;99.90
40808;DHT22;26523;52.504;13.498;2023-01-10T08:34:45;7.00;99.90
40808;DHT22;26523;52.504;13.498;2023-01-10T08:37:12;7.00;99.90
40808;DHT22;26523;52.504;13.498;2023-01-10T08:39:38;7.00;99.90
40808;DHT22;26523;52.504;13.498;2023-01-10T08:42:04;7.00;99.90
40808;DHT22;26523;52.504;13.498;2023-01-10T08:44:30;6.90;99.90
40808;DHT22;26523;52.504;13.498;2023-01-10T08:46:55;6.90;99.90
40808;DHT22;26523;52.504;13.498;2023-01-10T08:49:22;7.00;99.90
40808;DHT22;26523;52.504;13.498;2023-01-10T08:51:48;7.10;99.90
40808;DHT22;26523;52.504;13.498;2023-01-10T08:54:13;7.10;99.90
40808;DHT22;26523;52.504;13.498;2023-01-10T08:56:39;7.20;99.90
40808;DHT22;26523;52.504;13.498;2023-01-10T08:59:06;7.20;99.90
40808;DHT22;26523;52.504;13.498;2023-01-10T09:01:32;7.20;99.90
40808;DHT22;26523;52.504;13.498;2023-01-10T09:03:58;7.20;99.90
40808;DHT22;26523;52.504;13.498;2023-01-10T09:06:24;7.20;99.90
40808;DHT22;26523;52.504;13.498;2023-01-10T09:08:50;7.30;99.90
40808;DHT22;26523;52.504;13.498;2023-01-10T09:11:16;7.40;99.90
40808;DHT22;26523;52.504;13.498;2023-01-10T09:13:41;7.60;99.90
40808;DHT22;26523;52.504;13.498;2023-01-10T09:16:07;7.60;99.90
40808;DHT22;26523;52.504;13.498;2023-01-10T09:18:34;7.80;99.90
40808;DHT22;26523;52.504;13.498;2023-01-10T09:21:00;8.00;99.90
40808;DHT22;26523;52.504;13.498;2023-01-10T09:23:27;8.20;99.90
40808;DHT22;26523;52.504;13.498;2023-01-10T09:25:53;8.30;99.90
40808;DHT22;26523;52.504;13.498;2023-01-10T09:28:20;8.40;99.90
40808;DHT22;26523;52.504;13.498;2023-01-10T09:30:46;8.40;99.90
40808;DHT22;26523;52.504;13.498;2023-01-10T09:33:13;8.30;99.90
40808;DHT22;26523;52.504;13.498;2023-01-10T09:35:40;8.20;99.90
40808;DHT22;26523;52.504;13.498;2023-01-10T09:38:09;8.20;99.90
40808;DHT22;26523;52.504;13.498;2023-01-10T09:43:25;8.20;99.90
40808;DHT22;26523;52.504;13.498;2023-01-10T09:46:12;8.10;99.90
40808;DHT22;26523;52.504;13.498;2023-01-10T09:51:27;8.10;99.90
40808;DHT22;26523;52.504;13.498;2023-01-10T09:53:57;8.10;99.90
40808;DHT22;26523;52.504;13.498;2023-01-10T09:56:25;8.20;99.90
40808;DHT22;26523;52.504;13.498;2023-01-10T09:58:51;8.10;99.90
40808;DHT22;26523;52.504;13.498;2023-01-10T10:01:29;8.00;99.90
40808;DHT22;26523;52.504;13.498;2023-01-10T10:04:05;7.90;99.90
40808;DHT22;26523;52.504;13.498;2023-01-10T10:06:35;7.90;99.90
40808;DHT22;26523;52.504;13.498;2023-01-10T10:09:01;7.80;99.90
40808;DHT22;26523;52.504;13.498;2023-01-10T10:19:45;7.90;99.90
40808;DHT22;26523;52.504;13.498;2023-01-10T10:25:24;8.10;99.90
40808;DHT22;26523;52.504;13.498;2023-01-10T10:34:12;8.20;99.90
40808;DHT22;26523;52.504;13.498;2023-01-10T10:36:46;8.20;99.90
40808;DHT22;26523;52.504;13.498;2023-01-10T10:39:22;8.20;99.90
40808;DHT22;26523;52.504;13.498;2023-01-10T10:41:52;8.20;99.90
40808;DHT22;26523;52.504;13.498;2023-01-10T10:44:38;8.20;99.90
40808;DHT22;26523;52.504;13.498;2023-01-10T10:47:16;8.20;99.90
40808;DHT22;26523;52.504;13.498;2023-01-10T10:49:50;8.20;99.90
40808;DHT22;26523;52.504;13.498;2023-01-10T10:52:26;8.20;99.90
40808;DHT22;26523;52.504;13.498;2023-01-10T10:54:52;8.20;99.90
40808;DHT22;26523;52.504;13.498;2023-01-10T10:57:22;8.40;99.90
40808;DHT22;26523;52.504;13.498;2023-01-10T10:59:48;8.50;99.90
40808;DHT22;26523;52.504;13.498;2023-01-10T11:02:41;8.50;99.90
40808;DHT22;26523;52.504;13.498;2023-01-10T11:05:20;8.50;99.90
40808;DHT22;26523;52.504;13.498;2023-01-10T11:07:48;8.50;99.90
40808;DHT22;26523;52.504;13.498;2023-01-10T11:10:22;8.50;99.90
40808;DHT22;26523;52.504;13.498;2023-01-10T11:15:46;8.30;99.90
40808;DHT22;26523;52.504;13.498;2023-01-10T11:18:15;8.20;99.90
40808;DHT22;26523;52.504;13.498;2023-01-10T11:20:59;8.10;99.90
40808;DHT22;26523;52.504;13.498;2023-01-10T11:23:36;8.20;99.90
40808;DHT22;26523;52.504;13.498;2023-01-10T11:26:05;8.20;99.90
40808;DHT22;26523;52.504;13.498;2023-01-10T11:28:32;8.30;99.90
40808;DHT22;26523;52.504;13.498;2023-01-10T11:30:59;8.20;99.90
40808;DHT22;26523;52.504;13.498;2023-01-10T11:33:28;8.20;99.90
40808;DHT22;26523;52.504;13.498;2023-01-10T11:36:04;8.10;99.90
40808;DHT22;26523;52.504;13.498;2023-01-10T11:38:31;8.00;99.90
40808;DHT22;26523;52.504;13.498;2023-01-10T11:43:45;8.00;99.90
40808;DHT22;26523;52.504;13.498;2023-01-10T11:46:19;8.10;99.90
40808;DHT22;26523;52.504;13.498;2023-01-10T11:49:02;8.30;99.90
40808;DHT22;26523;52.504;13.498;2023-01-10T11:51:32;8.30;99.90
40808;DHT22;26523;52.504;13.498;2023-01-10T11:54:05;8.30;99.90
40808;DHT22;26523;52.504;13.498;2023-01-10T11:56:34;8.40;99.90
40808;DHT22;26523;52.504;13.498;2023-01-10T11:59:08;8.50;99.90
40808;DHT22;26523;52.504;13.498;2023-01-10T12:04:26;8.60;99.90
40808;DHT22;26523;52.504;13.498;2023-01-10T12:06:57;8.70;99.90
40808;DHT22;26523;52.504;13.498;2023-01-10T12:09:42;8.70;99.90
40808;DHT22;26523;52.504;13.498;2023-01-10T12:14:40;8.80;99.90
40808;DHT22;26523;52.504;13.498;2023-01-10T12:17:09;8.80;99.90
40808;DHT22;26523;52.504;13.498;2023-01-10T12:19:35;8.80;99.90
40808;DHT22;26523;52.504;13.498;2023-01-10T12:22:03;8.80;99.90
40808;DHT22;26523;52.504;13.498;2023-01-10T12:24:33;8.80;99.90
40808;DHT22;26523;52.504;13.498;2023-01-10T12:27:02;8.80;99.90
40808;DHT22;26523;52.504;13.498;2023-01-10T12:29:36;8.80;99.90
40808;DHT22;26523;52.504;13.498;2023-01-10T12:32:04;8.90;99.90
40808;DHT22;26523;52.504;13.498;2023-01-10T12:34:41;9.00;99.90
40808;DHT22;26523;52.504;13.498;2023-01-10T12:37:21;8.90;99.90
40808;DHT22;26523;52.504;13.498;2023-01-10T12:40:01;8.90;99.90
40808;DHT22;26523;52.504;13.498;2023-01-10T12:42:37;8.80;99.90
40808;DHT22;26523;52.504;13.498;2023-01-10T12:45:29;8.80;99.90
40808;DHT22;26523;52.504;13.498;2023-01-10T12:51:13;8.80;99.90
40808;DHT22;26523;52.504;13.498;2023-01-10T12:53:44;8.60;99.90
40808;DHT22;26523;52.504;13.498;2023-01-10T12:56:14;8.50;99.90
40808;DHT22;26523;52.504;13.498;2023-01-10T12:58:54;8.50;99.90
40808;DHT22;26523;52.504;13.498;2023-01-10T13:01:28;8.50;99.90
40808;DHT22;26523;52.504;13.498;2023-01-10T13:04:08;8.60;99.90
40808;DHT22;26523;52.504;13.498;2023-01-10T13:06:39;8.70;99.90
40808;DHT22;26523;52.504;13.498;2023-01-10T13:09:21;8.70;99.90
40808;DHT22;26523;52.504;13.498;2023-01-10T13:14:31;8.80;99.90
40808;DHT22;26523;52.504;13.498;2023-01-10T13:17:18;8.80;99.90
40808;DHT22;26523;52.504;13.498;2023-01-10T13:22:43;8.70;99.90
40808;DHT22;26523;52.504;13.498;2023-01-10T13:25:22;8.60;99.90
40808;DHT22;26523;52.504;13.498;2023-01-10T13:28:13;8.70;99.90
40808;DHT22;26523;52.504;13.498;2023-01-10T13:30:40;8.60;99.90
40808;DHT22;26523;52.504;13.498;2023-01-10T13:33:27;8.70;99.90
40808;DHT22;26523;52.504;13.498;2023-01-10T13:35:56;8.60;99.90
40808;DHT22;26523;52.504;13.498;2023-01-10T13:38:33;8.60;99.90
40808;DHT22;26523;52.504;13.498;2023-01-10T13:41:08;8.60;99.90
40808;DHT22;26523;52.504;13.498;2023-01-10T13:46:34;8.60;99.90
40808;DHT22;26523;52.504;13.498;2023-01-10T13:51:29;8.50;99.90
40808;DHT22;26523;52.504;13.498;2023-01-10T13:54:30;8.50;99.90
40808;DHT22;26523;52.504;13.498;2023-01-10T13:56:48;8.50;99.90
40808;DHT22;26523;52.504;13.498;2023-01-10T14:05:16;8.30;99.90
40808;DHT22;26523;52.504;13.498;2023-01-10T14:07:48;8.20;99.90
40808;DHT22;26523;52.504;13.498;2023-01-10T14:10:25;8.20;99.90
40808;DHT22;26523;52.504;13.498;2023-01-10T14:13:02;8.20;99.90
40808;DHT22;26523;52.504;13.498;2023-01-10T14:15:41;8.20;99.90
40808;DHT22;26523;52.504;13.498;2023-01-10T14:18:24;8.20;99.90
40808;DHT22;26523;52.504;13.498;2023-01-10T14:20:58;8.20;99.90
40808;DHT22;26523;52.504;13.498;2023-01-10T14:23:47;8.20;99.90
40808;DHT22;26523;52.504;13.498;2023-01-10T14:26:27;8.20;99.90
40808;DHT22;26523;52.504;13.498;2023-01-10T14:28:54;8.00;99.90
40808;DHT22;26523;52.504;13.498;2023-01-10T14:31:22;8.00;99.90
40808;DHT22;26523;52.504;13.498;2023-01-10T14:33:50;7.90;99.90
40808;DHT22;26523;52.504;13.498;2023-01-10T14:36:27;7.80;99.90
40808;DHT22;26523;52.504;13.498;2023-01-10T14:39:00;7.70;99.90
40808;DHT22;26523;52.504;13.498;2023-01-10T14:41:37;7.60;99.90
40808;DHT22;26523;52.504;13.498;2023-01-10T14:44:09;7.50;99.90
40808;DHT22;26523;52.504;13.498;2023-01-10T14:46:49;7.40;99.90
40808;DHT22;26523;52.504;13.498;2023-01-10T14:52:11;7.40;99.90
40808;DHT22;26523;52.504;13.498;2023-01-10T14:54:37;7.30;99.90
40808;DHT22;26523;52.504;13.498;2023-01-10T14:57:03;7.30;99.90
40808;DHT22;26523;52.504;13.498;2023-01-10T14:59:33;7.30;99.90
40808;DHT22;26523;52.504;13.498;2023-01-10T15:02:08;7.20;99.90
40808;DHT22;26523;52.504;13.498;2023-01-10T15:04:35;7.20;99.90
40808;DHT22;26523;52.504;13.498;2023-01-10T15:07:10;7.20;99.90
40808;DHT22;26523;52.504;13.498;2023-01-10T15:09:37;7.20;99.90
40808;DHT22;26523;52.504;13.498;2023-01-10T15:12:08;7.20;99.90
40808;DHT22;26523;52.504;13.498;2023-01-10T15:14:36;7.20;99.90
40808;DHT22;26523;52.504;13.498;2023-01-10T15:17:03;7.10;99.90
40808;DHT22;26523;52.504;13.498;2023-01-10T15:19:33;7.10;99.90
40808;DHT22;26523;52.504;13.498;2023-01-10T15:22:00;7.00;99.90
40808;DHT22;26523;52.504;13.498;2023-01-10T15:24:34;6.90;99.90
40808;DHT22;26523;52.504;13.498;2023-01-10T15:27:12;6.90;99.90
40808;DHT22;26523;52.504;13.498;2023-01-10T15:29:39;6.70;99.90
40808;DHT22;26523;52.504;13.498;2023-01-10T15:34:48;6.60;99.90
40808;DHT22;26523;52.504;13.498;2023-01-10T15:37:22;6.50;99.90
40808;DHT22;26523;52.504;13.498;2023-01-10T15:39:54;6.40;99.90
40808;DHT22;26523;52.504;13.498;2023-01-10T15:42:20;6.40;99.90
40808;DHT22;26523;52.504;13.498;2023-01-10T15:44:48;6.40;99.90
40808;DHT22;26523;52.504;13.498;2023-01-10T15:50:51;6.40;99.90
40808;DHT22;26523;52.504;13.498;2023-01-10T15:53:17;6.50;99.90
40808;DHT22;26523;52.504;13.498;2023-01-10T15:55:46;6.50;99.90
40808;DHT22;26523;52.504;13.498;2023-01-10T15:58:31;6.50;99.90
40808;DHT22;26523;52.504;13.498;2023-01-10T16:01:00;6.50;99.90
40808;DHT22;26523;52.504;13.498;2023-01-10T16:03:38;6.50;99.90
40808;DHT22;26523;52.504;13.498;2023-01-10T16:08:48;6.60;99.90
40808;DHT22;26523;52.504;13.498;2023-01-10T16:11:44;6.50;99.90
40808;DHT22;26523;52.504;13.498;2023-01-10T16:14:25;6.50;99.90
40808;DHT22;26523;52.504;13.498;2023-01-10T16:16:50;6.50;99.90
40808;DHT22;26523;52.504;13.498;2023-01-10T16:19:16;6.60;99.90
40808;DHT22;26523;52.504;13.498;2023-01-10T16:21:45;6.60;99.90
40808;DHT22;26523;52.504;13.498;2023-01-10T16:24:31;6.70;99.90
40808;DHT22;26523;52.504;13.498;2023-01-10T16:26:59;6.60;99.90
40808;DHT22;26523;52.504;13.498;2023-01-10T16:29:27;6.70;99.90
40808;DHT22;26523;52.504;13.498;2023-01-10T16:31:53;6.70;99.90
40808;DHT22;26523;52.504;13.498;2023-01-10T16:34:20;6.80;99.90
40808;DHT22;26523;52.504;13.498;2023-01-10T16:36:46;6.80;99.90
40808;DHT22;26523;52.504;13.498;2023-01-10T16:39:15;6.70;99.90
40808;DHT22;26523;52.504;13.498;2023-01-10T16:41:42;6.80;99.90
40808;DHT22;26523;52.504;13.498;2023-01-10T16:44:27;6.80;99.90
40808;DHT22;26523;52.504;13.498;2023-01-10T16:46:53;6.70;99.90
40808;DHT22;26523;52.504;13.498;2023-01-10T16:49:20;6.80;99.90
40808;DHT22;26523;52.504;13.498;2023-01-10T16:51:46;6.80;99.90
40808;DHT22;26523;52.504;13.498;2023-01-10T16:54:16;6.80;99.90
40808;DHT22;26523;52.504;13.498;2023-01-10T16:56:45;6.70;99.90
40808;DHT22;26523;52.504;13.498;2023-01-10T16:59:12;6.70;99.90
40808;DHT22;26523;52.504;13.498;2023-01-10T17:01:44;6.70;99.90
40808;DHT22;26523;52.504;13.498;2023-01-10T17:04:16;6.80;99.90
40808;DHT22;26523;52.504;13.498;2023-01-10T17:06:42;6.80;99.90
40808;DHT22;26523;52.504;13.498;2023-01-10T17:09:19;6.80;99.90
40808;DHT22;26523;52.504;13.498;2023-01-10T17:11:46;6.70;99.90
40808;DHT22;26523;52.504;13.498;2023-01-10T17:14:13;6.70;99.90
40808;DHT22;26523;52.504;13.498;2023-01-10T17:16:39;6.60;99.90
40808;DHT22;26523;52.504;13.498;2023-01-10T17:19:06;6.60;99.90
40808;DHT22;26523;52.504;13.498;2023-01-10T17:21:32;6.70;99.90
40808;DHT22;26523;52.504;13.498;2023-01-10T17:23:57;6.70;99.90
40808;DHT22;26523;52.504;13.498;2023-01-10T17:26:23;6.70;99.90
40808;DHT22;26523;52.504;13.498;2023-01-10T17:28:49;6.60;99.90
40808;DHT22;26523;52.504;13.498;2023-01-10T17:31:17;6.60;99.90
40808;DHT22;26523;52.504;13.498;2023-01-10T17:33:44;6.60;99.90